Time;durP1;ratioP1;P1;durP2;ratioP2;P2;SDS_P1;SDS_P2;PMS_P1;PMS_P2;Temp;Humidity;BMP_temperature;BMP_pressure;BME280_temperature;BME280_humidity;BME280_pressure;Samples;Min_cycle;Max_cycle;Signal;HPM_P1;HPM_P2
2023/04/08 00:00:49;;;;;;;8.90;4.20;;;;;;;;;;5045344;27;93256;-80
2023/04/08 00:03:16;;;;;;;12.02;5.88;;;;;;;;;;5037870;27;93446;-80
2023/04/08 00:05:43;;;;;;;9.95;4.65;;;;;;;;;;5038741;27;92323;-80
2023/04/08 00:08:09;;;;;;;9.13;4.53;;;;;;;;;;5031854;27;92186;-79
2023/04/08 00:10:36;;;;;;;8.77;4.70;;;;;;;;;;5046836;27;92310;-80
2023/04/08 00:13:02;;;;;;;9.70;5.32;;;;;;;;;;5038049;28;93082;-80
2023/04/08 00:15:29;;;;;;;9.10;4.47;;;;;;;;;;5039440;27;95595;-79
2023/04/08 00:17:55;;;;;;;9.23;4.55;;;;;;;;;;5045864;27;92415;-80
2023/04/08 00:20:22;;;;;;;12.82;6.05;;;;;;;;;;5055074;27;94695;-79
2023/04/08 00:22:49;;;;;;;10.20;4.78;;;;;;;;;;5032339;28;92439;-79
2023/04/08 00:25:15;;;;;;;10.25;5.05;;;;;;;;;;5044137;27;92553;-79
2023/04/08 00:27:42;;;;;;;10.55;5.35;;;;;;;;;;5026060;28;95813;-80
2023/04/08 00:30:09;;;;;;;9.35;4.70;;;;;;;;;;5025899;27;92251;-79
2023/04/08 00:32:36;;;;;;;;;;;;;;;;;;5027729;27;94788;-80
2023/04/08 00:35:03;;;;;;;11.63;6.00;;;;;;;;;;5016803;28;117419;-80
2023/04/08 00:37:30;;;;;;;13.48;6.55;;;;;;;;;;5026542;27;92439;-80
2023/04/08 00:39:56;;;;;;;12.05;6.22;;;;;;;;;;5023727;28;94494;-80
2023/04/08 00:42:23;;;;;;;12.90;6.53;;;;;;;;;;5021128;28;92228;-80
2023/04/08 00:44:49;;;;;;;11.95;5.97;;;;;;;;;;5028635;28;94618;-80
2023/04/08 00:47:17;;;;;;;10.07;5.20;;;;;;;;;;5003878;28;94982;-80
2023/04/08 00:49:43;;;;;;;11.57;5.00;;;;;;;;;;5017007;28;94404;-80
2023/04/08 00:52:10;;;;;;;8.43;4.40;;;;;;;;;;5045560;27;92757;-80
2023/04/08 00:54:37;;;;;;;8.43;3.80;;;;;;;;;;5046600;27;92982;-80
2023/04/08 00:57:04;;;;;;;9.13;4.60;;;;;;;;;;5032123;27;91901;-80
2023/04/08 00:59:31;;;;;;;8.70;4.57;;;;;;;;;;5013157;28;94286;-80
2023/04/08 01:02:05;;;;;;;11.27;4.70;;;;;;;;;;5033108;28;95445;-80
2023/04/08 01:04:45;;;;;;;12.88;5.47;;;;;;;;;;5033928;27;97864;-80
2023/04/08 01:07:16;;;;;;;11.63;4.57;;;;;;;;;;5040634;27;93043;-80
2023/04/08 01:09:44;;;;;;;9.73;4.50;;;;;;;;;;5039874;28;92091;-77
2023/04/08 01:12:12;;;;;;;8.25;4.00;;;;;;;;;;5036420;27;93474;-78
2023/04/08 01:14:41;;;;;;;11.60;3.80;;;;;;;;;;5041391;27;92570;-78
2023/04/08 01:17:08;;;;;;;7.55;3.47;;;;;;;;;;5043571;27;92152;-78
2023/04/08 01:19:37;;;;;;;8.88;4.25;;;;;;;;;;5043868;27;92517;-78
2023/04/08 01:22:14;;;;;;;7.78;3.90;;;;;;;;;;5046384;27;91978;-78
2023/04/08 01:24:42;;;;;;;7.43;3.55;;;;;;;;;;5061965;27;92329;-78
2023/04/08 01:27:10;;;;;;;8.43;4.43;;;;;;;;;;5061579;27;93092;-78
2023/04/08 01:29:36;;;;;;;8.35;4.22;;;;;;;;;;5043959;27;94843;-78
2023/04/08 01:32:06;;;;;;;8.60;4.18;;;;;;;;;;5046731;27;95286;-78
2023/04/08 01:34:33;;;;;;;8.80;4.47;;;;;;;;;;5027461;27;93006;-78
2023/04/08 01:37:01;;;;;;;7.95;3.95;;;;;;;;;;5041590;27;92842;-78
2023/04/08 01:39:27;;;;;;;;;;;;;;;;;;5041739;27;92618;-79
2023/04/08 01:41:55;;;;;;;9.88;4.30;;;;;;;;;;5023586;28;119165;-79
2023/04/08 01:44:23;;;;;;;8.35;4.25;;;;;;;;;;5025069;28;92241;-79
2023/04/08 01:46:50;;;;;;;7.88;4.28;;;;;;;;;;5041217;28;91891;-79
2023/04/08 01:49:16;;;;;;;8.70;4.28;;;;;;;;;;5041425;27;92446;-79
2023/04/08 01:51:44;;;;;;;7.97;4.10;;;;;;;;;;5040821;27;92374;-79
2023/04/08 01:54:10;;;;;;;8.25;4.53;;;;;;;;;;5039066;27;95135;-79
2023/04/08 01:56:40;;;;;;;6.82;3.75;;;;;;;;;;5023224;28;92390;-80
2023/04/08 01:59:09;;;;;;;6.78;3.25;;;;;;;;;;5028192;27;94889;-79
2023/04/08 02:01:36;;;;;;;8.38;4.30;;;;;;;;;;5006946;28;96177;-79
2023/04/08 02:04:02;;;;;;;7.30;3.20;;;;;;;;;;5022372;27;92640;-78
2023/04/08 02:06:30;;;;;;;5.97;3.13;;;;;;;;;;5043662;27;92461;-79
2023/04/08 02:08:56;;;;;;;;;;;;;;;;;;5043237;27;92203;-79
2023/04/08 02:11:24;;;;;;;6.75;3.25;;;;;;;;;;5046023;27;112799;-80
2023/04/08 02:13:51;;;;;;;6.55;3.08;;;;;;;;;;5042169;27;95480;-79
2023/04/08 02:16:27;;;;;;;7.80;3.80;;;;;;;;;;5040235;27;92494;-79
2023/04/08 02:19:14;;;;;;;7.47;3.40;;;;;;;;;;5039280;27;94517;-81
2023/04/08 02:21:49;;;;;;;6.43;3.10;;;;;;;;;;4999492;28;92807;-80
2023/04/08 02:24:16;;;;;;;6.43;2.80;;;;;;;;;;5040225;27;91979;-80
2023/04/08 02:26:44;;;;;;;6.18;2.83;;;;;;;;;;5038886;27;92516;-80
2023/04/08 02:29:11;;;;;;;8.30;3.83;;;;;;;;;;5045416;27;93125;-80
2023/04/08 02:31:40;;;;;;;6.97;3.47;;;;;;;;;;5046227;27;94312;-81
2023/04/08 02:34:08;;;;;;;8.25;4.15;;;;;;;;;;5041213;27;95455;-81
2023/04/08 02:36:35;;;;;;;6.28;3.13;;;;;;;;;;5060986;27;91727;-80
2023/04/08 02:39:02;;;;;;;5.95;2.75;;;;;;;;;;5041631;27;92430;-80
2023/04/08 02:41:29;;;;;;;7.55;4.07;;;;;;;;;;5041711;27;95053;-80
2023/04/08 02:43:56;;;;;;;7.60;3.45;;;;;;;;;;5058736;27;94862;-80
2023/04/08 02:46:22;;;;;;;8.57;3.90;;;;;;;;;;5059607;27;95765;-80
2023/04/08 02:48:49;;;;;;;9.45;2.90;;;;;;;;;;5038551;28;95252;-80
2023/04/08 02:51:16;;;;;;;6.60;2.75;;;;;;;;;;5058631;27;92631;-79
2023/04/08 02:53:42;;;;;;;7.05;3.28;;;;;;;;;;5041622;27;94707;-80
2023/04/08 02:56:09;;;;;;;6.05;2.85;;;;;;;;;;5040874;27;92379;-80
2023/04/08 02:58:36;;;;;;;7.28;3.03;;;;;;;;;;5061339;27;92571;-80
2023/04/08 03:01:02;;;;;;;6.13;2.90;;;;;;;;;;5041895;27;92586;-79
2023/04/08 03:03:30;;;;;;;8.48;3.70;;;;;;;;;;5037897;28;91974;-79
2023/04/08 03:05:57;;;;;;;6.32;3.00;;;;;;;;;;5039957;27;93037;-79
2023/04/08 03:08:23;;;;;;;6.25;2.67;;;;;;;;;;5039180;27;95266;-79
2023/04/08 03:10:50;;;;;;;8.25;3.40;;;;;;;;;;5053458;27;92814;-80
2023/04/08 03:13:16;;;;;;;7.03;2.80;;;;;;;;;;5045113;27;92575;-79
2023/04/08 03:15:43;;;;;;;6.72;3.00;;;;;;;;;;5059517;27;92087;-79
2023/04/08 03:18:10;;;;;;;7.60;2.65;;;;;;;;;;5041642;27;92844;-79
2023/04/08 03:20:36;;;;;;;5.45;2.38;;;;;;;;;;5041525;27;92719;-79
2023/04/08 03:23:03;;;;;;;6.13;2.95;;;;;;;;;;5059764;27;92280;-79
2023/04/08 03:25:30;;;;;;;4.75;2.45;;;;;;;;;;5041945;27;95379;-79
2023/04/08 03:27:57;;;;;;;5.20;2.40;;;;;;;;;;5038288;28;95126;-79
2023/04/08 03:30:23;;;;;;;5.70;2.30;;;;;;;;;;5068298;27;92126;-79
2023/04/08 03:32:50;;;;;;;6.03;2.88;;;;;;;;;;5061002;27;94365;-79
2023/04/08 03:35:16;;;;;;;6.05;2.85;;;;;;;;;;5059900;27;92269;-80
2023/04/08 03:37:43;;;;;;;6.53;2.58;;;;;;;;;;5041144;27;94524;-79
2023/04/08 03:40:10;;;;;;;6.65;2.55;;;;;;;;;;5040055;27;95270;-79
2023/04/08 03:42:36;;;;;;;6.13;2.42;;;;;;;;;;5059639;27;92447;-79
2023/04/08 03:45:03;;;;;;;6.70;2.88;;;;;;;;;;5040955;27;94264;-79
2023/04/08 03:47:30;;;;;;;4.93;2.55;;;;;;;;;;5059409;27;92713;-79
2023/04/08 03:49:56;;;;;;;5.90;2.72;;;;;;;;;;5060928;27;91688;-79
2023/04/08 03:52:23;;;;;;;5.95;2.80;;;;;;;;;;5044001;27;92560;-80
2023/04/08 03:54:50;;;;;;;5.88;2.83;;;;;;;;;;5047391;27;92773;-80
2023/04/08 03:57:16;;;;;;;5.78;2.65;;;;;;;;;;5061780;27;94595;-80
2023/04/08 03:59:43;;;;;;;5.75;2.65;;;;;;;;;;5067292;27;93293;-79
2023/04/08 04:02:09;;;;;;;6.00;2.90;;;;;;;;;;5044036;27;92139;-81
2023/04/08 04:04:36;;;;;;;6.13;2.90;;;;;;;;;;5017917;28;94970;-81
2023/04/08 04:07:02;;;;;;;6.20;2.95;;;;;;;;;;4984403;28;95139;-81
2023/04/08 04:09:29;;;;;;;6.30;2.90;;;;;;;;;;5003300;28;92560;-81
2023/04/08 04:11:56;;;;;;;6.30;3.08;;;;;;;;;;5002399;28;92760;-81
2023/04/08 04:14:22;;;;;;;7.03;3.55;;;;;;;;;;5002396;28;92077;-81
2023/04/08 04:16:48;;;;;;;5.78;2.83;;;;;;;;;;5012306;28;92241;-81
2023/04/08 04:19:17;;;;;;;6.00;2.83;;;;;;;;;;5004577;28;95564;-81
2023/04/08 04:21:43;;;;;;;6.07;2.80;;;;;;;;;;5020075;28;94451;-81
2023/04/08 04:24:10;;;;;;;6.63;3.17;;;;;;;;;;5022093;28;94882;-81
2023/04/08 04:26:36;;;;;;;6.95;3.33;;;;;;;;;;5020484;28;92590;-80
2023/04/08 04:29:02;;;;;;;8.00;3.25;;;;;;;;;;5022291;28;92666;-80
2023/04/08 04:31:29;;;;;;;12.82;3.95;;;;;;;;;;5021056;28;92870;-79
2023/04/08 04:33:56;;;;;;;10.85;3.50;;;;;;;;;;5020827;28;92162;-79
2023/04/08 04:36:22;;;;;;;7.95;3.85;;;;;;;;;;5021254;28;92159;-78
2023/04/08 04:38:49;;;;;;;10.20;4.57;;;;;;;;;;5024281;28;94084;-78
2023/04/08 04:41:16;;;;;;;7.93;3.78;;;;;;;;;;5021929;28;92190;-79
2023/04/08 04:43:42;;;;;;;8.13;3.97;;;;;;;;;;5022257;28;92988;-79
2023/04/08 04:46:09;;;;;;;8.48;4.50;;;;;;;;;;5018086;28;95251;-79
2023/04/08 04:48:36;;;;;;;7.65;4.03;;;;;;;;;;5021753;27;92933;-79
2023/04/08 04:51:02;;;;;;;9.15;4.65;;;;;;;;;;5021720;28;93278;-79
2023/04/08 04:53:29;;;;;;;8.43;4.55;;;;;;;;;;5020670;28;95522;-79
2023/04/08 04:55:56;;;;;;;7.72;4.10;;;;;;;;;;5020418;28;92262;-80
2023/04/08 04:58:22;;;;;;;10.02;3.95;;;;;;;;;;5021486;28;92953;-80
2023/04/08 05:00:49;;;;;;;9.00;3.80;;;;;;;;;;5023966;28;92659;-80
2023/04/08 05:03:15;;;;;;;10.60;4.10;;;;;;;;;;5028506;28;92312;-80
2023/04/08 05:05:42;;;;;;;8.55;4.03;;;;;;;;;;5041309;27;93018;-80
2023/04/08 05:08:09;;;;;;;9.98;4.35;;;;;;;;;;5040083;27;92835;-80
2023/04/08 05:10:35;;;;;;;8.20;4.10;;;;;;;;;;5038293;28;94899;-80
2023/04/08 05:13:02;;;;;;;7.90;3.90;;;;;;;;;;5041571;27;92765;-80
2023/04/08 05:15:28;;;;;;;9.93;3.90;;;;;;;;;;5041355;27;92523;-80
2023/04/08 05:17:54;;;;;;;6.97;3.30;;;;;;;;;;5041219;27;92468;-81
2023/04/08 05:20:21;;;;;;;7.82;4.07;;;;;;;;;;5052245;27;92739;-80
2023/04/08 05:22:48;;;;;;;7.00;3.38;;;;;;;;;;5022204;28;92399;-80
2023/04/08 05:25:14;;;;;;;8.38;4.00;;;;;;;;;;5018859;28;94557;-80
2023/04/08 05:27:41;;;;;;;8.18;3.75;;;;;;;;;;5003434;28;91912;-80
2023/04/08 05:30:08;;;;;;;7.60;3.72;;;;;;;;;;5029433;27;92112;-81
2023/04/08 05:32:35;;;;;;;8.30;4.45;;;;;;;;;;5019236;28;93428;-81
2023/04/08 05:35:05;;;;;;;7.47;3.88;;;;;;;;;;5017659;28;94503;-81
2023/04/08 05:37:31;;;;;;;6.50;3.42;;;;;;;;;;5019213;28;97032;-82
2023/04/08 05:39:57;;;;;;;7.03;3.60;;;;;;;;;;5020786;27;93602;-80
2023/04/08 05:42:24;;;;;;;7.80;3.80;;;;;;;;;;5039490;27;92498;-82
2023/04/08 05:44:50;;;;;;;7.22;3.45;;;;;;;;;;5032673;27;93612;-82
2023/04/08 05:47:17;;;;;;;6.60;3.30;;;;;;;;;;5039336;27;92363;-82
2023/04/08 05:49:43;;;;;;;7.07;3.50;;;;;;;;;;5030260;28;93118;-82
2023/04/08 05:52:10;;;;;;;6.80;3.40;;;;;;;;;;5040453;27;92100;-80
2023/04/08 05:54:36;;;;;;;6.93;3.33;;;;;;;;;;5040777;27;92369;-81
2023/04/08 05:57:03;;;;;;;6.85;3.30;;;;;;;;;;5040193;27;93280;-81
2023/04/08 05:59:29;;;;;;;7.20;2.88;;;;;;;;;;5037506;28;95011;-82
2023/04/08 06:01:56;;;;;;;6.97;3.10;;;;;;;;;;5041177;27;92891;-82
2023/04/08 06:04:23;;;;;;;7.57;3.55;;;;;;;;;;5021203;28;94858;-83
2023/04/08 06:06:50;;;;;;;7.88;3.95;;;;;;;;;;4994061;28;92745;-82
2023/04/08 06:09:16;;;;;;;8.13;4.28;;;;;;;;;;4997898;28;94990;-80
2023/04/08 06:11:43;;;;;;;8.88;4.70;;;;;;;;;;4989308;28;92769;-80
2023/04/08 06:14:09;;;;;;;8.43;4.90;;;;;;;;;;4990712;28;92509;-81
2023/04/08 06:16:36;;;;;;;11.23;4.60;;;;;;;;;;5000064;28;92460;-80
2023/04/08 06:19:02;;;;;;;9.55;4.78;;;;;;;;;;4999297;28;93209;-80
2023/04/08 06:21:29;;;;;;;10.48;5.25;;;;;;;;;;4999456;28;92202;-81
2023/04/08 06:23:55;;;;;;;10.30;5.53;;;;;;;;;;4997574;28;94688;-80
2023/04/08 06:26:22;;;;;;;8.82;4.93;;;;;;;;;;5001494;28;93102;-81
2023/04/08 06:28:48;;;;;;;10.20;5.38;;;;;;;;;;4994714;28;93126;-82
2023/04/08 06:31:15;;;;;;;11.05;5.45;;;;;;;;;;4998028;28;93157;-81
2023/04/08 06:33:42;;;;;;;10.30;5.63;;;;;;;;;;5000250;28;92018;-81
2023/04/08 06:36:08;;;;;;;10.82;5.72;;;;;;;;;;4984440;28;92396;-81
2023/04/08 06:38:35;;;;;;;16.40;5.43;;;;;;;;;;4980099;28;93183;-81
2023/04/08 06:41:05;;;;;;;9.32;5.13;;;;;;;;;;4979711;28;91643;-82
2023/04/08 06:43:32;;;;;;;10.38;5.75;;;;;;;;;;4995635;28;92278;-81
2023/04/08 06:45:59;;;;;;;10.05;5.68;;;;;;;;;;4988214;28;92823;-80
2023/04/08 06:48:28;;;;;;;11.63;6.43;;;;;;;;;;4981802;28;94912;-81
2023/04/08 06:50:59;;;;;;;10.35;6.07;;;;;;;;;;4985954;28;95198;-82
2023/04/08 06:53:28;;;;;;;10.85;6.40;;;;;;;;;;4998246;28;92205;-80
2023/04/08 06:55:54;;;;;;;11.80;6.43;;;;;;;;;;5015277;28;92641;-81
2023/04/08 06:58:22;;;;;;;13.13;6.38;;;;;;;;;;5018533;28;93570;-79
2023/04/08 07:00:48;;;;;;;9.95;4.80;;;;;;;;;;5019305;28;92329;-80
2023/04/08 07:03:15;;;;;;;7.97;4.43;;;;;;;;;;5017749;28;94900;-80
2023/04/08 07:05:42;;;;;;;7.18;3.53;;;;;;;;;;5019414;28;92319;-78
2023/04/08 07:08:08;;;;;;;7.78;3.10;;;;;;;;;;5019045;28;92820;-80
2023/04/08 07:10:35;;;;;;;35.08;3.85;;;;;;;;;;5021599;28;92389;-79
2023/04/08 07:13:02;;;;;;;10.32;3.00;;;;;;;;;;5018053;28;94460;-77
2023/04/08 07:15:28;;;;;;;7.07;2.70;;;;;;;;;;5004640;28;95232;-77
2023/04/08 07:17:55;;;;;;;7.25;2.60;;;;;;;;;;5017454;28;92774;-77
2023/04/08 07:20:22;;;;;;;7.10;2.47;;;;;;;;;;5016575;28;92142;-77
2023/04/08 07:22:49;;;;;;;6.25;2.72;;;;;;;;;;5019156;28;92447;-76
2023/04/08 07:25:15;;;;;;;4.72;2.40;;;;;;;;;;5018436;28;92988;-76
2023/04/08 07:27:42;;;;;;;5.05;2.60;;;;;;;;;;5018986;28;92389;-76
2023/04/08 07:30:09;;;;;;;5.72;2.50;;;;;;;;;;4999451;28;94975;-77
2023/04/08 07:32:35;;;;;;;6.90;2.65;;;;;;;;;;5014312;28;92205;-76
2023/04/08 07:35:02;;;;;;;8.45;2.67;;;;;;;;;;5017533;28;94686;-76
2023/04/08 07:37:29;;;;;;;10.40;3.10;;;;;;;;;;5017234;28;95196;-77
2023/04/08 07:39:55;;;;;;;7.97;2.85;;;;;;;;;;5018649;28;92317;-77
2023/04/08 07:42:22;;;;;;;7.65;3.00;;;;;;;;;;5017221;28;93896;-77
2023/04/08 07:44:49;;;;;;;6.72;2.80;;;;;;;;;;5009662;28;95024;-77
2023/04/08 07:47:15;;;;;;;6.93;2.67;;;;;;;;;;5009473;28;92380;-77
2023/04/08 07:49:42;;;;;;;7.03;2.65;;;;;;;;;;5016818;28;94672;-76
2023/04/08 07:52:08;;;;;;;6.53;2.78;;;;;;;;;;5018153;28;95308;-77
2023/04/08 07:54:35;;;;;;;8.60;2.90;;;;;;;;;;5018437;28;91921;-77
2023/04/08 07:57:01;;;;;;;6.65;2.50;;;;;;;;;;5018559;28;92827;-77
2023/04/08 07:59:28;;;;;;;5.05;2.63;;;;;;;;;;5017044;28;92055;-78
2023/04/08 08:01:55;;;;;;;5.72;2.50;;;;;;;;;;5015631;28;94955;-77
2023/04/08 08:04:24;;;;;;;7.18;2.50;;;;;;;;;;5036692;27;92682;-77
2023/04/08 08:06:51;;;;;;;6.10;2.63;;;;;;;;;;5037013;27;92277;-78
2023/04/08 08:09:17;;;;;;;7.95;2.60;;;;;;;;;;5038307;27;92821;-77
2023/04/08 08:11:44;;;;;;;5.90;2.40;;;;;;;;;;5050179;27;93282;-78
2023/04/08 08:14:12;;;;;;;5.97;2.60;;;;;;;;;;5061234;27;92817;-76
2023/04/08 08:16:39;;;;;;;6.63;2.83;;;;;;;;;;5040348;27;92191;-76
2023/04/08 08:19:06;;;;;;;5.63;2.40;;;;;;;;;;5041106;27;91603;-77
2023/04/08 08:21:35;;;;;;;6.22;2.40;;;;;;;;;;5057865;27;92596;-76
2023/04/08 08:24:02;;;;;;;6.03;2.40;;;;;;;;;;5043896;27;92412;-76
2023/04/08 08:26:28;;;;;;;5.97;2.38;;;;;;;;;;5038245;27;94721;-77
2023/04/08 08:28:55;;;;;;;5.00;2.38;;;;;;;;;;5058640;27;95189;-77
2023/04/08 08:31:21;;;;;;;5.05;2.20;;;;;;;;;;5067988;27;92722;-76
2023/04/08 08:33:48;;;;;;;6.28;2.47;;;;;;;;;;5039684;27;92690;-77
2023/04/08 08:36:15;;;;;;;5.63;2.50;;;;;;;;;;5061827;27;92387;-77
2023/04/08 08:38:41;;;;;;;6.03;2.10;;;;;;;;;;5062219;27;92319;-77
2023/04/08 08:41:08;;;;;;;5.25;2.40;;;;;;;;;;5042814;27;94338;-77
2023/04/08 08:43:34;;;;;;;5.93;2.40;;;;;;;;;;5043879;27;91727;-76
2023/04/08 08:46:01;;;;;;;5.82;2.40;;;;;;;;;;5042649;27;92547;-76
2023/04/08 08:48:27;;;;;;;6.30;2.53;;;;;;;;;;5043452;27;94775;-76
2023/04/08 08:50:54;;;;;;;5.78;2.30;;;;;;;;;;5059461;27;95153;-77
2023/04/08 08:53:22;;;;;;;5.68;2.40;;;;;;;;;;5062214;27;92099;-77
2023/04/08 08:55:48;;;;;;;4.90;2.30;;;;;;;;;;5060907;27;92681;-78
2023/04/08 08:58:35;;;;;;;5.95;2.30;;;;;;;;;;5064339;27;97312;-76
2023/04/08 09:01:01;;;;;;;4.70;2.15;;;;;;;;;;5061244;27;92334;-76
2023/04/08 09:03:28;;;;;;;5.38;2.22;;;;;;;;;;5054469;27;93315;-77
2023/04/08 09:05:55;;;;;;;;;;;;;;;;;;5047872;27;92542;-75
2023/04/08 09:08:42;;;;;;;5.85;2.10;;;;;;;;;;5042665;27;94181;-77
2023/04/08 09:11:18;;;;;;;4.72;2.20;;;;;;;;;;5032583;27;92389;-77
2023/04/08 09:13:45;;;;;;;3.97;1.90;;;;;;;;;;5038078;28;92581;-76
2023/04/08 09:16:13;;;;;;;5.72;2.13;;;;;;;;;;5050273;27;94845;-77
2023/04/08 09:18:43;;;;;;;5.07;2.10;;;;;;;;;;5061204;27;93815;-77
2023/04/08 09:21:10;;;;;;;4.35;2.00;;;;;;;;;;5063689;27;92633;-78
2023/04/08 09:23:37;;;;;;;;;;;;;;;;;;5042919;27;92731;-78
2023/04/08 09:26:08;;;;;;;3.90;1.73;;;;;;;;;;5036783;28;97808;-77
2023/04/08 09:28:35;;;;;;;4.68;1.70;;;;;;;;;;5048783;27;94638;-77
2023/04/08 09:31:16;;;;;;;4.13;1.80;;;;;;;;;;5039166;27;93265;-77
2023/04/08 09:33:43;;;;;;;4.10;1.80;;;;;;;;;;5061509;27;91754;-77
2023/04/08 09:36:09;;;;;;;4.07;1.90;;;;;;;;;;5059782;27;92482;-77
2023/04/08 09:38:36;;;;;;;4.63;1.85;;;;;;;;;;5061421;27;93092;-77
2023/04/08 09:41:05;;;;;;;5.05;1.80;;;;;;;;;;5062503;27;94790;-78
2023/04/08 09:43:35;;;;;;;3.70;1.88;;;;;;;;;;5061195;27;92112;-76
2023/04/08 09:46:04;;;;;;;4.63;1.95;;;;;;;;;;5060729;27;92307;-77
2023/04/08 09:48:34;;;;;;;5.80;1.98;;;;;;;;;;5059761;27;92828;-77
2023/04/08 09:51:01;;;;;;;3.92;1.70;;;;;;;;;;5060410;27;92872;-77
2023/04/08 09:53:27;;;;;;;3.33;1.70;;;;;;;;;;5061110;27;92298;-77
2023/04/08 09:55:55;;;;;;;3.53;1.67;;;;;;;;;;5060328;27;95040;-77
2023/04/08 09:58:26;;;;;;;3.65;1.75;;;;;;;;;;5060449;27;92577;-77
2023/04/08 10:00:53;;;;;;;3.13;1.77;;;;;;;;;;5060511;27;92955;-76
2023/04/08 10:03:31;;;;;;;3.60;1.80;;;;;;;;;;5040053;28;92947;-77
2023/04/08 10:06:00;;;;;;;3.88;1.90;;;;;;;;;;5054331;27;94962;-78
2023/04/08 10:08:26;;;;;;;3.72;1.80;;;;;;;;;;5042377;27;100748;-77
2023/04/08 10:10:53;;;;;;;3.33;1.63;;;;;;;;;;5062539;27;92920;-78
2023/04/08 10:13:20;;;;;;;4.13;2.03;;;;;;;;;;5052727;27;92383;-78
2023/04/08 10:15:47;;;;;;;4.70;1.83;;;;;;;;;;5060777;27;92799;-77
2023/04/08 10:18:17;;;;;;;3.30;1.73;;;;;;;;;;5060058;27;93079;-76
2023/04/08 10:20:44;;;;;;;3.33;1.60;;;;;;;;;;5041740;27;92483;-77
2023/04/08 10:23:12;;;;;;;;;;;;;;;;;;5061635;27;92947;-76
2023/04/08 10:25:40;;;;;;;3.30;1.75;;;;;;;;;;5063701;27;112879;-77
2023/04/08 10:28:12;;;;;;;4.22;1.90;;;;;;;;;;5040946;27;95239;-77
2023/04/08 10:30:39;;;;;;;4.28;1.80;;;;;;;;;;5059293;27;94900;-77
2023/04/08 10:33:14;;;;;;;4.70;1.80;;;;;;;;;;5060019;27;92165;-77
2023/04/08 10:36:01;;;;;;;3.75;1.70;;;;;;;;;;5059556;27;92504;-77
2023/04/08 10:38:28;;;;;;;4.15;1.83;;;;;;;;;;5022650;27;97368;-77
2023/04/08 10:40:54;;;;;;;3.53;1.77;;;;;;;;;;5053949;27;92121;-76
2023/04/08 10:43:23;;;;;;;3.47;1.75;;;;;;;;;;5042131;27;92546;-77
2023/04/08 10:45:51;;;;;;;4.13;2.05;;;;;;;;;;5040516;27;92738;-77
2023/04/08 10:48:19;;;;;;;3.75;1.90;;;;;;;;;;5062444;27;91469;-77
2023/04/08 10:51:06;;;;;;;4.80;1.80;;;;;;;;;;5059644;27;93057;-77
2023/04/08 10:53:34;;;;;;;4.50;2.00;;;;;;;;;;5052906;27;92066;-76
2023/04/08 10:56:05;;;;;;;3.65;1.70;;;;;;;;;;5057516;27;94528;-77
2023/04/08 10:58:32;;;;;;;3.45;2.00;;;;;;;;;;5059483;27;93038;-76
2023/04/08 11:01:03;;;;;;;3.33;1.80;;;;;;;;;;5058996;27;92597;-77
2023/04/08 11:03:32;;;;;;;4.75;1.90;;;;;;;;;;5059415;27;92712;-77
2023/04/08 11:05:59;;;;;;;5.00;1.83;;;;;;;;;;5058813;27;93692;-76
2023/04/08 11:08:30;;;;;;;3.40;1.70;;;;;;;;;;5041593;27;92467;-77
2023/04/08 11:10:57;;;;;;;4.35;1.83;;;;;;;;;;5061888;27;92383;-77
2023/04/08 11:13:24;;;;;;;3.70;1.73;;;;;;;;;;5035643;27;91752;-77
2023/04/08 11:15:51;;;;;;;3.85;1.77;;;;;;;;;;5056301;27;92484;-77
2023/04/08 11:18:17;;;;;;;3.30;1.70;;;;;;;;;;5053415;27;92696;-76
2023/04/08 11:20:44;;;;;;;3.53;1.73;;;;;;;;;;5057962;27;94790;-78
2023/04/08 11:23:14;;;;;;;3.17;1.60;;;;;;;;;;5052620;27;95230;-77
2023/04/08 11:25:40;;;;;;;2.30;1.60;;;;;;;;;;5043637;27;92535;-78
2023/04/08 11:28:07;;;;;;;3.30;1.50;;;;;;;;;;5037760;27;92360;-76
2023/04/08 11:30:34;;;;;;;3.45;1.73;;;;;;;;;;5043006;27;93661;-76
2023/04/08 11:33:00;;;;;;;3.75;1.70;;;;;;;;;;5046513;27;92833;-77
2023/04/08 11:35:28;;;;;;;3.10;1.70;;;;;;;;;;5020641;27;92832;-76
2023/04/08 11:37:55;;;;;;;2.95;1.67;;;;;;;;;;5047863;27;92124;-77
2023/04/08 11:40:22;;;;;;;3.80;1.70;;;;;;;;;;5037551;27;92509;-77
2023/04/08 11:42:50;;;;;;;3.53;1.70;;;;;;;;;;5058146;27;92824;-77
2023/04/08 11:45:16;;;;;;;;;;;;;;;;;;5039360;27;95485;-76
2023/04/08 11:47:43;;;;;;;4.15;1.70;;;;;;;;;;5059326;27;110627;-76
2023/04/08 11:50:10;;;;;;;;;;;;;;;;;;5058208;27;92350;-77
2023/04/08 11:52:47;;;;;;;3.25;1.70;;;;;;;;;;5044335;27;95262;-76
2023/04/08 11:55:26;;;;;;;3.50;1.80;;;;;;;;;;5057771;27;92819;-78
2023/04/08 11:57:54;;;;;;;3.15;1.55;;;;;;;;;;5058209;27;93044;-78
2023/04/08 12:00:21;;;;;;;4.07;2.00;;;;;;;;;;5057279;27;92214;-78
2023/04/08 12:02:48;;;;;;;4.32;1.80;;;;;;;;;;5040338;27;94682;-78
2023/04/08 12:05:15;;;;;;;4.20;1.80;;;;;;;;;;5057727;27;93067;-78
2023/04/08 12:07:41;;;;;;;4.25;1.83;;;;;;;;;;5057827;27;92457;-78
2023/04/08 12:10:09;;;;;;;4.88;1.95;;;;;;;;;;5056455;27;94415;-78
2023/04/08 12:12:36;;;;;;;3.35;1.77;;;;;;;;;;5059312;27;92635;-79
2023/04/08 12:15:02;;;;;;;3.33;1.65;;;;;;;;;;5064682;27;92480;-78
2023/04/08 12:17:29;;;;;;;4.32;1.77;;;;;;;;;;5043471;27;92546;-78
2023/04/08 12:19:56;;;;;;;3.53;1.52;;;;;;;;;;5061486;27;92215;-79
2023/04/08 12:22:22;;;;;;;4.10;1.67;;;;;;;;;;5061013;27;92522;-80
2023/04/08 12:24:49;;;;;;;4.15;1.50;;;;;;;;;;5043236;27;93262;-79
2023/04/08 12:27:15;;;;;;;3.17;1.50;;;;;;;;;;5062292;27;91534;-80
2023/04/08 12:29:42;;;;;;;3.80;1.65;;;;;;;;;;5067975;27;92221;-79
2023/04/08 12:32:08;;;;;;;4.18;1.70;;;;;;;;;;5063043;27;92868;-78
2023/04/08 12:34:35;;;;;;;4.50;1.75;;;;;;;;;;5059566;27;94920;-78
2023/04/08 12:37:02;;;;;;;2.78;1.63;;;;;;;;;;5064592;27;95337;-78
2023/04/08 12:39:28;;;;;;;2.75;1.60;;;;;;;;;;5061285;27;92923;-79
2023/04/08 12:41:55;;;;;;;2.47;1.45;;;;;;;;;;5042072;27;92612;-79
2023/04/08 12:44:22;;;;;;;;;;;;;;;;;;5059795;27;93070;-79
2023/04/08 12:46:48;;;;;;;3.30;1.45;;;;;;;;;;5062294;27;110161;-78
2023/04/08 12:49:15;;;;;;;3.95;1.60;;;;;;;;;;5061822;27;92666;-79
2023/04/08 12:51:42;;;;;;;3.63;1.60;;;;;;;;;;5062322;27;91917;-79
2023/04/08 12:54:08;;;;;;;4.32;1.60;;;;;;;;;;5060731;27;92322;-79
2023/04/08 12:56:35;;;;;;;3.33;1.70;;;;;;;;;;5043341;27;93650;-79
2023/04/08 12:59:01;;;;;;;2.92;1.60;;;;;;;;;;5062961;27;95469;-78
2023/04/08 13:01:29;;;;;;;2.42;1.50;;;;;;;;;;5042720;27;95976;-80
2023/04/08 13:03:56;;;;;;;3.05;1.60;;;;;;;;;;5060858;27;93406;-80
2023/04/08 13:06:23;;;;;;;3.50;1.63;;;;;;;;;;5060507;27;92192;-80
2023/04/08 13:08:49;;;;;;;3.65;1.55;;;;;;;;;;5062083;27;92680;-80
2023/04/08 13:11:16;;;;;;;3.13;1.50;;;;;;;;;;5059643;27;92734;-80
2023/04/08 13:13:43;;;;;;;3.97;1.60;;;;;;;;;;5061204;27;92028;-78
2023/04/08 13:16:10;;;;;;;4.95;1.50;;;;;;;;;;5042788;27;93341;-78
2023/04/08 13:18:36;;;;;;;5.20;1.55;;;;;;;;;;5058241;27;93025;-79
2023/04/08 13:21:03;;;;;;;4.43;1.58;;;;;;;;;;5053101;27;92350;-79
2023/04/08 13:23:29;;;;;;;4.75;1.58;;;;;;;;;;5038683;27;96072;-80
2023/04/08 13:25:56;;;;;;;6.18;1.50;;;;;;;;;;5040823;27;92459;-79
2023/04/08 13:28:22;;;;;;;5.20;1.50;;;;;;;;;;5040102;27;92674;-79
2023/04/08 13:30:49;;;;;;;7.60;1.70;;;;;;;;;;5068347;27;92774;-79
2023/04/08 13:33:16;;;;;;;6.57;1.40;;;;;;;;;;5060147;27;92633;-80
2023/04/08 13:35:42;;;;;;;3.53;1.45;;;;;;;;;;5060576;27;92377;-80
2023/04/08 13:38:09;;;;;;;4.60;1.40;;;;;;;;;;5041407;27;98436;-80
2023/04/08 13:40:35;;;;;;;4.00;1.40;;;;;;;;;;5054937;27;92087;-80
2023/04/08 13:43:02;;;;;;;6.60;1.45;;;;;;;;;;5057482;27;92425;-80
2023/04/08 13:45:28;;;;;;;6.38;1.70;;;;;;;;;;5059180;27;92684;-80
2023/04/08 13:47:55;;;;;;;9.63;1.90;;;;;;;;;;5037433;27;95248;-80
2023/04/08 13:50:22;;;;;;;;;;;;;;;;;;5059851;27;92445;-81
2023/04/08 13:52:48;;;;;;;6.00;1.45;;;;;;;;;;5060937;27;92639;-81
2023/04/08 13:55:15;;;;;;;8.70;1.40;;;;;;;;;;5061513;27;93652;-80
2023/04/08 13:57:42;;;;;;;7.22;1.38;;;;;;;;;;5059285;27;93278;-80
2023/04/08 14:00:09;;;;;;;9.00;1.35;;;;;;;;;;5037973;27;92230;-80
2023/04/08 14:02:36;;;;;;;4.28;1.30;;;;;;;;;;5061931;27;92233;-80
2023/04/08 14:05:03;;;;;;;4.03;1.23;;;;;;;;;;5060306;27;91426;-80
2023/04/08 14:07:29;;;;;;;;;;;;;;;;;;5041860;27;92259;-81
2023/04/08 14:09:56;;;;;;;4.07;1.40;;;;;;;;;;5062510;27;108326;-81
2023/04/08 14:12:22;;;;;;;3.15;1.15;;;;;;;;;;5057549;27;94908;-81
2023/04/08 14:14:49;;;;;;;5.40;1.20;;;;;;;;;;5053661;27;94836;-81
2023/04/08 14:17:15;;;;;;;18.15;1.63;;;;;;;;;;5008857;27;95405;-80
2023/04/08 14:19:42;;;;;;;3.13;1.30;;;;;;;;;;5060883;27;92403;-80
2023/04/08 14:22:08;;;;;;;4.90;1.30;;;;;;;;;;5036829;27;93397;-80
2023/04/08 14:24:35;;;;;;;3.15;1.38;;;;;;;;;;5056323;27;92772;-79
2023/04/08 14:27:02;;;;;;;2.60;1.27;;;;;;;;;;5043612;27;92500;-79
2023/04/08 14:29:28;;;;;;;5.63;1.40;;;;;;;;;;5048572;27;92034;-78
2023/04/08 14:31:55;;;;;;;5.28;1.35;;;;;;;;;;5031833;27;92656;-78
2023/04/08 14:34:22;;;;;;;3.88;1.58;;;;;;;;;;5022948;27;92963;-79
2023/04/08 14:36:49;;;;;;;3.10;1.20;;;;;;;;;;5024684;28;95040;-78
2023/04/08 14:39:15;;;;;;;4.10;1.50;;;;;;;;;;5036478;27;92530;-79
2023/04/08 14:41:41;;;;;;;2.65;1.25;;;;;;;;;;5038131;27;92316;-79
2023/04/08 14:44:08;;;;;;;6.75;1.40;;;;;;;;;;5022937;27;94981;-79
2023/04/08 14:46:34;;;;;;;2.92;1.40;;;;;;;;;;5028364;28;92086;-79